Flight Track Log - Related Links

Times and Time Zones

All times are in EDT time to prevent confusion due to time zone crossing. See the GJS3657 flight status page for this flight to view local times or setup timezone preferences in your user account.

Time Position Orientation Groundspeed Altitude Reporting Facility
EDT Latitude Longitude Course Direction KTS MPH feet Rate Location/Type
Fri 07:13:23 AM 42.7672 -73.8061 276° West 168 193 1,000  Level Boston Center
Fri 07:14:17 AM 42.8131 -73.8156 351° North 202 232 2,700 2,543 Climbing Boston Center
Fri 07:15:54 AM 42.8972 -73.9139 319° Northwest 261 300 7,400 2,713 Climbing Boston Center
Fri 07:16:54 AM 42.9506 -73.9831 317° Northwest 256 295 9,800 2,350 Climbing Boston Center
Fri 07:17:00 AM 43.0226 -74.2327 276° West  Level FlightAware Approximate
Fri 07:17:54 AM 43.0100 -74.0586 317° Northwest 278 320 12,100  Level Boston Center
Fri 07:18:00 AM 43.0320 -74.3637 276° West  Level FlightAware Approximate
Fri 07:18:54 AM 43.0733 -74.1456 315° West 301 346 14,100  Level Boston Center
Fri 07:19:54 AM 43.0819 -74.2653 276° West 306 352 16,500 2,000 Climbing Boston Center
Fri 07:20:54 AM 43.0903 -74.3933 275° West 332 382 18,100 1,600 Climbing Boston Center
Fri 07:21:54 AM 43.0964 -74.5100 274° West 344 396 19,700 1,700 Climbing Boston Center
Fri 07:22:54 AM 43.1022 -74.6439 273° West 354 407 21,500 1,650 Climbing Boston Center
Fri 07:23:54 AM 43.1078 -74.7836 273° West 359 413 23,000 843 Climbing Boston Center
Fri 07:24:55 AM 43.1133 -74.9203 273° West 364 419 23,200 700 Climbing Boston Center
Fri 07:25:54 AM 43.1186 -75.0600 273° West 370 426 24,400 1,311 Climbing Boston Center
Fri 07:26:54 AM 43.1231 -75.2222 272° West 376 433 25,800 1,400 Climbing Boston Center
Fri 07:27:54 AM 43.1317 -75.3706 275° West 388 447 27,200 1,300 Climbing Boston Center
Fri 07:28:54 AM 43.1572 -75.5142 284° West 388 447 28,400 1,050 Climbing Boston Center
Fri 07:29:54 AM 43.1950 -75.6528 291° West 388 447 29,300 800 Climbing Boston Center
Fri 07:30:54 AM 43.2325 -75.8003 289° West 395 455 30,000 773 Climbing Boston Center
Fri 07:32:06 AM 43.2697 -75.9450 289° West 405 466 31,000 1,273 Climbing Boston Center
Fri 07:33:06 AM 43.2850 -76.1256 277° West 397 457 32,800 1,550 Climbing Boston Center
Fri 07:34:06 AM 43.2800 -76.2792 267° West 402 463 34,100 1,258 Climbing Boston Center
Fri 07:35:10 AM 43.2753 -76.4197 267° West 390 449 35,400 1,161 Climbing Cleveland Center
Fri 07:36:10 AM 43.2722 -76.5653 268° West 384 442 36,500 950 Climbing Cleveland Center
Fri 07:37:10 AM 43.2686 -76.7083 268° West 384 442 37,300 600 Climbing Cleveland Center
Fri 07:38:10 AM 43.2650 -76.8511 268° West 384 442 37,700 350 Climbing Cleveland Center
Fri 07:39:10 AM 43.2592 -76.9997 267° West 384 442 38,000 150 Climbing Cleveland Center
Fri 07:40:10 AM 43.2511 -77.1428 266° West 384 442 38,000  Level Cleveland Center
Fri 07:41:10 AM 43.2472 -77.2942 268° West 391 450 38,000  Level Cleveland Center
Fri 07:42:10 AM 43.2431 -77.4453 268° West 397 457 38,000  Level Cleveland Center
Fri 07:43:10 AM 43.2364 -77.5939 267° West 397 457 38,000  Level Cleveland Center
Fri 07:44:10 AM 43.2300 -77.7453 267° West 402 463 38,000  Level Cleveland Center
Fri 07:45:10 AM 43.2250 -77.8908 267° West 402 463 38,000  Level Cleveland Center
Fri 07:46:10 AM 43.2178 -78.0364 266° West 402 463 38,000  Level Cleveland Center
Fri 07:47:10 AM 43.2111 -78.2019 267° West 397 457 38,000  Level Cleveland Center
Fri 07:48:10 AM 43.2056 -78.3475 267° West 402 463 38,000  Level Cleveland Center
Fri 07:49:10 AM 43.1958 -78.4958 265° West 402 463 38,000  Level Cleveland Center
Fri 07:50:10 AM 43.1900 -78.6442 267° West 402 463 38,000  Level Cleveland Center
Fri 07:51:10 AM 43.1842 -78.7922 267° West 402 463 38,000  Level Cleveland Center
Fri 07:52:10 AM 43.1781 -78.9433 267° West 402 463 38,000  Level Cleveland Center
Fri 07:53:38 AM 43.1500 -79.1500 260° West 390 449 38,000  Level Toronto Center
Fri 07:54:38 AM 43.1500 -79.2833 270° West 400 460 38,000  Level Toronto Center
Fri 07:55:38 AM 43.1333 -79.4500 262° West 400 460 38,000  Level Toronto Center
Fri 07:56:38 AM 43.1333 -79.5833 270° West 400 460 38,000  Level Toronto Center
Fri 07:57:38 AM 43.1167 -79.7500 262° West 400 460 38,000  Level Toronto Center
Fri 07:58:38 AM 43.1167 -79.9000 270° West 400 460 38,000  Level Toronto Center
Fri 07:59:38 AM 43.1000 -80.0500 261° West 400 460 38,000  Level Toronto Center
Fri 08:00:38 AM 43.1000 -80.2000 270° West 400 460 38,000  Level Toronto Center
Fri 08:01:38 AM 43.0833 -80.3667 262° West 390 449 38,000  Level Toronto Center
Fri 08:02:38 AM 43.0667 -80.5000 260° West 390 449 38,000  Level Toronto Center
Fri 08:03:38 AM 43.0667 -80.6667 270° West 390 449 38,000  Level Toronto Center
Fri 08:04:38 AM 43.0500 -80.8000 260° West 390 449 38,000  Level Toronto Center
Fri 08:05:38 AM 43.0333 -80.9333 260° West 400 460 38,000  Level Toronto Center
Fri 08:06:38 AM 43.0167 -81.1000 262° West 400 460 38,000  Level Toronto Center
Fri 08:07:38 AM 43.0167 -81.2500 270° West 400 460 38,000  Level Toronto Center
Fri 08:08:38 AM 43.0167 -81.4167 270° West 400 460 38,000  Level Toronto Center
Fri 08:09:38 AM 43.0167 -81.5500 270° West 400 460 38,000  Level Toronto Center
Fri 08:10:38 AM 43.0167 -81.7000 270° West 400 460 38,000  Level Toronto Center
Fri 08:11:38 AM 43.0167 -81.8500 270° West 400 460 38,000  Level Toronto Center
Fri 08:12:38 AM 43.0000 -82.0000 261° West 400 460 38,000  Level Toronto Center
Fri 08:13:38 AM 43.0000 -82.1667 270° West 400 460 38,000  Level Toronto Center
Fri 08:14:38 AM 43.0000 -82.3167 270° West 400 460 38,000  Level Toronto Center
Fri 08:15:38 AM 43.0000 -82.4667 270° West 410 472 38,000 -200 Level Toronto Center
Fri 08:16:38 AM 42.9833 -82.6500 263° West 420 483 37,600 -519 Descending Toronto Center
Fri 08:17:22 AM 43.0008 -82.7350 286° West 410 472 37,100 -808 Descending Cleveland Center
Fri 08:18:22 AM 42.9956 -82.8908 267° West 415 478 36,200 -900 Descending Cleveland Center
Fri 08:19:22 AM 42.9922 -83.0528 268° West 421 484 35,300 -900 Descending Cleveland Center
Fri 08:20:22 AM 42.9867 -83.2169 267° West 421 484 34,400 -900 Descending Cleveland Center
Fri 08:21:22 AM 42.9786 -83.3814 266° West 426 490 33,500 -900 Descending Cleveland Center
Fri 08:22:22 AM 42.9742 -83.5514 268° West 438 504 32,600 -750 Descending Cleveland Center
Fri 08:23:22 AM 42.9656 -83.7242 266° West 449 517 32,000 -300 Descending Cleveland Center
Fri 08:24:22 AM 42.9525 -83.8936 264° West 454 522 32,000  Level Cleveland Center
Fri 08:25:22 AM 42.9344 -84.0800 263° West 462 532 32,000  Level Cleveland Center
Fri 08:26:22 AM 42.9167 -84.2519 262° West 462 532 32,000  Level Cleveland Center
Fri 08:27:39 AM 42.8964 -84.4625 263° West 459 528 32,000  Level Chicago Center
Fri 08:28:41 AM 42.8789 -84.6325 262° West 457 526 32,000  Level Chicago Center
Fri 08:29:43 AM 42.8614 -84.8044 262° West 460 529 32,000  Level Chicago Center
Fri 08:30:45 AM 42.8442 -84.9742 262° West 457 526 32,000  Level Chicago Center
Fri 08:31:46 AM 42.8256 -85.1447 262° West 457 526 32,000 -976 Level Chicago Center
Fri 08:32:48 AM 42.8036 -85.3486 262° West 458 527 30,000 -1,935 Descending Chicago Center
Fri 08:33:50 AM 42.7847 -85.5181 261° West 457 526 28,000 -1,935 Descending Chicago Center
Fri 08:34:52 AM 42.7539 -85.6850 256° West 458 527 26,000 -1,984 Descending Chicago Center
Fri 08:35:54 AM 42.7233 -85.8514 256° West 452 520 23,900 -1,951 Descending Chicago Center
Fri 08:36:55 AM 42.6956 -86.0056 256° West 436 502 22,000 -1,854 Descending Chicago Center
Fri 08:37:57 AM 42.6678 -86.1531 256° West 414 476 20,100 -968 Descending Chicago Center
Fri 08:38:59 AM 42.6356 -86.3275 256° West 400 460 20,000 -927 Descending Chicago Center
Fri 08:40:00 AM 42.6083 -86.4744 256° West 405 466 18,200 -1,756 Descending Chicago Center
Fri 08:41:02 AM 42.5806 -86.6181 255° West 398 458 16,400 -1,887 Descending Chicago Center
Fri 08:42:04 AM 42.5525 -86.7569 255° West 373 429 14,300 -2,000 Descending Chicago Center
Fri 08:43:05 AM 42.5178 -86.8844 250° West 365 420 12,300 -1,902 Descending Chicago Center
Fri 08:44:07 AM 42.4836 -87.0100 250° West 360 414 10,400 -1,113 Descending Chicago Center
Fri 08:45:09 AM 42.4508 -87.1325 250° West 352 405 10,000 -390 Descending Chicago Center
Fri 08:46:10 AM 42.4203 -87.2400 249° West 317 365 9,600 -1,171 Descending Chicago Center
Fri 08:47:12 AM 42.3919 -87.3522 251° West 270 311 7,600 -1,258 Descending Chicago Center
Fri 08:48:14 AM 42.3672 -87.4436 250° West 261 300 7,000 -293 Descending Chicago Center
Fri 08:49:15 AM 42.3411 -87.5128 243° Southwest 222 255 7,000  Level Chicago Center
Fri 08:50:17 AM 42.2942 -87.5653 220° Southwest 222 255 7,000 -242 Level Chicago Center
Fri 08:51:19 AM 42.2494 -87.6161 220° Southwest 216 249 6,500 -1,024 Descending Chicago Center
Fri 08:52:20 AM 42.2078 -87.6606 218° Southwest 200 230 4,900 -1,220 Descending Chicago Center
Fri 08:53:22 AM 42.1653 -87.7111 221° Southwest 177 204 4,000 -488 Descending Chicago Center
Fri 08:54:23 AM 42.1314 -87.7472 218° Southwest 161 185 3,900 -390 Descending Chicago Center
Fri 08:55:25 AM 42.0986 -87.7847 220° Southwest 157 181 3,200 -726 Descending Chicago Center
Fri 08:56:27 AM 42.0678 -87.8214 221° Southwest 153 176 2,400 -732 Descending Chicago Center
Fri 08:57:28 AM 42.0414 -87.8497 219° Southwest 139 160 1,700 -585 Descending Chicago Center
Fri 08:58:30 AM 42.0147 -87.8778 218° Southwest 125 144 1,200 -484 Descending Chicago Center
Fri 09:00:00 AM 41.9817 -87.9067 217° Southwest  Level Estimated

Login

Don't have an account? Register now (free) for customized features, flight alerts, and more!